Flight Track Log - Related Links

Times and Time Zones

All times are in EDT time to prevent confusion due to time zone crossing. See the USC105 flight status page for this flight to view local times or setup timezone preferences in your user account.

Time Position Orientation Groundspeed Altitude Reporting Facility
EDT Latitude Longitude Course Direction KTS MPH feet Rate Location/Type
Mon 09:52:07 PM 39.8203 -82.9217 42° Northeast 113 130 1,000  Level Indianapolis Center
Mon 09:53:32 PM 39.8511 -82.8858 42° Northeast 102 117 2,500 945 Climbing Indianapolis Center
Mon 09:54:14 PM 39.8639 -82.8714 41° Northeast 104 120 3,000 932 Climbing Indianapolis Center
Mon 09:55:15 PM 39.8858 -82.8447 43° Northeast 105 121 4,100 1,033 Climbing Indianapolis Center
Mon 09:56:16 PM 39.9083 -82.8164 44° Northeast 110 127 5,100 934 Climbing Indianapolis Center
Mon 09:57:17 PM 39.9319 -82.7861 45° Northeast 116 133 6,000 934 Climbing Indianapolis Center
Mon 09:58:18 PM 39.9575 -82.7547 43° Northeast 124 143 7,000 541 Climbing Indianapolis Center
Mon 09:59:19 PM 39.9922 -82.7108 44° Northeast 152 175 7,100 49 Climbing Indianapolis Center
Mon 10:00:20 PM 40.0311 -82.6806 31° Northeast 164 189 7,100  Level Indianapolis Center
Mon 10:01:21 PM 40.0750 -82.6506 28° Northeast 176 203 7,100  Level Indianapolis Center
Mon 10:02:23 PM 40.1222 -82.6192 27° Northeast 187 215 7,100  Level Indianapolis Center
Mon 10:03:24 PM 40.1689 -82.5892 26° Northeast 187 215 7,100  Level Indianapolis Center
Mon 10:04:25 PM 40.2142 -82.5583 27° Northeast 183 211 7,100  Level Indianapolis Center
Mon 10:05:39 PM 40.2733 -82.5203 26° Northeast 189 217 7,100  Level Indianapolis Center
Mon 10:06:27 PM 40.3078 -82.4969 27° Northeast 193 222 7,100  Level Indianapolis Center
Mon 10:07:28 PM 40.3561 -82.4683 24° Northeast 191 220 7,100  Level Indianapolis Center
Mon 10:08:29 PM 40.4022 -82.4339 30° Northeast 190 219 7,100 -98 Level Indianapolis Center
Mon 10:09:30 PM 40.4497 -82.4019 27° Northeast 191 220 6,900 -50 Descending Indianapolis Center
Mon 10:10:30 PM 40.4969 -82.3700 27° Northeast 190 219 7,000 50 Climbing Indianapolis Center
Mon 10:11:31 PM 40.5447 -82.3383 27° Northeast 189 217 7,000 -49 Level Indianapolis Center
Mon 10:12:32 PM 40.5931 -82.3061 27° Northeast 193 222 6,900  Descending Indianapolis Center
Mon 10:13:34 PM 40.6408 -82.2747 26° Northeast 190 219 7,000 49 Climbing Indianapolis Center
Mon 10:14:34 PM 40.6881 -82.2422 28° Northeast 190 219 7,000  Level Indianapolis Center
Mon 10:15:35 PM 40.7361 -82.2103 27° Northeast 191 220 7,000 49 Level Indianapolis Center
Mon 10:16:36 PM 40.7833 -82.1775 28° Northeast 191 220 7,100  Climbing Indianapolis Center
Mon 10:17:37 PM 40.8314 -82.1450 27° Northeast 191 220 7,000 -49 Descending Indianapolis Center
Mon 10:18:38 PM 40.8800 -82.1131 26° Northeast 194 223 7,000 49 Level Indianapolis Center
Mon 10:19:39 PM 40.9342 -82.0756 28° Northeast 187 215 7,100 49 Climbing Indianapolis Center
Mon 10:20:40 PM 40.9797 -82.0411 30° Northeast 187 215 7,100  Level Indianapolis Center

Login

Don't have an account? Register now (free) for customized features, flight alerts, and more!